createdAt,value
2022-11-05T00:03:45.116Z,19.30
2022-11-05T00:09:06.809Z,16.38
2022-11-05T00:14:29.548Z,19.25
2022-11-05T00:19:33.726Z,24.80
2022-11-05T00:24:55.646Z,17.13
2022-11-05T00:30:01.200Z,19.13
2022-11-05T00:35:05.864Z,20.50
2022-11-05T00:40:11.922Z,20.25
2022-11-05T00:45:21.853Z,26.83
2022-11-05T00:50:26.192Z,21.75
2022-11-05T00:55:34.786Z,31.70
2022-11-05T01:00:44.727Z,30.80
2022-11-05T01:05:51.114Z,28.65
2022-11-05T01:10:57.589Z,68.28
2022-11-05T01:16:07.359Z,33.08
2022-11-05T01:21:12.752Z,29.77
2022-11-05T01:26:17.145Z,20.25
2022-11-05T01:31:22.875Z,21.65
2022-11-05T01:36:26.874Z,19.17
2022-11-05T01:41:31.449Z,19.80
2022-11-05T01:46:41.279Z,16.83
2022-11-05T01:51:47.039Z,16.38
2022-11-05T01:56:55.301Z,27.20
2022-11-05T02:02:02.363Z,22.58
2022-11-05T02:07:08.957Z,21.48
2022-11-05T02:12:15.053Z,24.98
2022-11-05T02:17:31.633Z,17.50
2022-11-05T02:22:58.876Z,16.10
2022-11-05T02:28:28.114Z,16.05
2022-11-05T02:33:56.840Z,20.77
2022-11-05T02:39:13.150Z,16.25
2022-11-05T02:44:32.264Z,17.20
2022-11-05T02:49:48.179Z,22.67
2022-11-05T02:55:00.628Z,17.77
2022-11-05T03:00:08.102Z,48.17
2022-11-05T03:05:13.684Z,22.52
2022-11-05T03:10:44.533Z,14.95
2022-11-05T03:15:58.259Z,16.52
2022-11-05T03:21:07.754Z,21.55
2022-11-05T03:31:18.816Z,17.02
2022-11-05T03:36:28.857Z,16.85
2022-11-05T03:41:35.509Z,22.27
2022-11-05T03:46:45.242Z,42.65
2022-11-05T03:51:58.428Z,25.95
2022-11-05T03:57:08.821Z,18.02
2022-11-05T04:02:15.141Z,17.88
2022-11-05T04:07:40.327Z,18.65
2022-11-05T04:13:01.645Z,13.32
2022-11-05T04:18:05.619Z,14.88
2022-11-05T04:23:36.969Z,20.15
2022-11-05T04:28:54.714Z,23.02
2022-11-05T04:33:58.592Z,38.53
2022-11-05T04:39:04.059Z,62.17
2022-11-05T04:44:09.525Z,32.65
2022-11-05T04:49:13.707Z,27.90
2022-11-05T04:54:19.134Z,21.45
2022-11-05T04:59:23.556Z,20.23
2022-11-05T05:04:27.544Z,19.92
2022-11-05T05:09:32.884Z,20.58
2022-11-05T05:14:38.333Z,29.17
2022-11-05T05:19:59.639Z,42.90
2022-11-05T05:25:05.942Z,28.92
2022-11-05T05:30:11.326Z,33.92
2022-11-05T05:35:16.213Z,33.67
2022-11-05T05:40:21.580Z,44.88
2022-11-05T05:45:25.627Z,22.08
2022-11-05T05:50:29.534Z,19.77
2022-11-05T05:55:34.900Z,19.50
2022-11-05T06:00:38.911Z,26.15
2022-11-05T06:05:42.802Z,27.75
2022-11-05T06:10:53.246Z,28.42
2022-11-05T06:16:02.178Z,31.98
2022-11-05T06:21:09.132Z,43.97
2022-11-05T06:26:16.711Z,35.30
2022-11-05T06:31:20.654Z,99.35
2022-11-05T06:36:24.601Z,51.67
2022-11-05T06:41:29.955Z,42.63
2022-11-05T06:46:33.848Z,38.55
2022-11-05T06:51:38.244Z,26.42
2022-11-05T06:56:43.627Z,33.75
2022-11-05T07:01:47.677Z,23.58
2022-11-05T07:06:54.806Z,59.72
2022-11-05T07:12:03.452Z,48.25
2022-11-05T07:17:07.668Z,29.60
2022-11-05T07:22:12.085Z,21.80
2022-11-05T07:27:17.839Z,21.55
2022-11-05T07:32:21.844Z,24.10
2022-11-05T07:37:26.300Z,22.70
2022-11-05T07:42:32.139Z,25.20
2022-11-05T07:47:40.507Z,18.67
2022-11-05T07:52:45.153Z,25.97
2022-11-05T07:57:52.045Z,26.20
2022-11-05T08:03:07.186Z,19.67
2022-11-05T08:08:14.397Z,21.52
2022-11-05T08:13:20.049Z,19.63
2022-11-05T08:18:31.243Z,20.92
2022-11-05T08:23:35.464Z,20.48
2022-11-05T08:28:43.956Z,18.60
2022-11-05T08:33:48.625Z,20.98
2022-11-05T08:38:53.125Z,16.50
2022-11-05T08:43:59.975Z,22.75
2022-11-05T08:49:04.408Z,14.77
2022-11-05T08:54:08.604Z,16.10
2022-11-05T08:59:13.953Z,13.40
2022-11-05T09:04:18.728Z,14.38
2022-11-05T09:09:22.894Z,13.45
2022-11-05T09:14:30.205Z,17.40
2022-11-05T09:19:39.989Z,15.45
2022-11-05T09:24:45.473Z,12.38
2022-11-05T09:29:50.836Z,15.32
2022-11-05T09:34:54.923Z,14.68
2022-11-05T09:39:59.239Z,21.10
2022-11-05T09:45:09.101Z,19.20
2022-11-05T09:50:16.729Z,19.52
2022-11-05T09:55:25.232Z,17.15
2022-11-05T10:00:32.767Z,18.23
2022-11-05T10:05:39.997Z,13.27
2022-11-05T10:10:48.860Z,12.10
2022-11-05T10:16:02.618Z,9.70
2022-11-05T10:21:09.646Z,7.05
2022-11-05T10:26:19.909Z,8.15
2022-11-05T10:31:29.318Z,6.53
2022-11-05T10:36:38.704Z,8.30
2022-11-05T10:42:04.135Z,8.15
2022-11-05T10:47:30.479Z,6.50
2022-11-05T10:52:37.304Z,5.25
2022-11-05T10:57:42.787Z,7.05
2022-11-05T11:02:51.967Z,6.22
2022-11-05T11:08:01.633Z,5.25
2022-11-05T11:13:06.592Z,7.10
2022-11-05T11:18:28.083Z,5.88
2022-11-05T11:23:38.505Z,2.55
2022-11-05T11:28:49.709Z,6.30
2022-11-05T11:34:03.560Z,6.90
2022-11-05T11:39:08.581Z,3.47
2022-11-05T11:44:17.357Z,6.90
2022-11-05T11:49:34.598Z,12.57
2022-11-05T11:54:38.730Z,4.78
2022-11-05T12:00:07.337Z,3.75
2022-11-05T12:05:30.483Z,3.35
2022-11-05T12:10:49.522Z,2.33
2022-11-05T12:21:34.826Z,3.67
2022-11-05T12:26:55.971Z,2.67
2022-11-05T12:32:23.579Z,6.22
2022-11-05T12:37:35.100Z,8.73
2022-11-05T12:42:50.364Z,6.93
2022-11-05T12:48:08.945Z,5.88
2022-11-05T12:53:43.436Z,8.60
2022-11-05T12:58:52.149Z,5.60
2022-11-05T13:04:00.353Z,8.07
2022-11-05T13:09:13.892Z,11.05
2022-11-05T13:14:22.873Z,8.63
2022-11-05T13:24:45.554Z,7.80
2022-11-05T13:29:54.344Z,11.70
2022-11-05T13:35:00.994Z,14.00
2022-11-05T13:40:11.341Z,30.75
2022-11-05T13:45:49.149Z,22.38
2022-11-05T13:51:38.877Z,14.25
2022-11-05T13:57:00.535Z,14.25
2022-11-05T14:02:15.627Z,17.27
2022-11-05T14:07:24.226Z,22.60
2022-11-05T14:12:32.768Z,18.00
2022-11-05T14:17:56.512Z,22.77
2022-11-05T14:23:37.912Z,22.73
2022-11-05T14:28:49.255Z,28.30
2022-11-05T14:34:02.222Z,22.40
2022-11-05T14:39:21.809Z,25.05
2022-11-05T14:44:29.911Z,19.75
2022-11-05T14:49:37.397Z,63.90
2022-11-05T14:54:45.413Z,52.38
2022-11-05T14:59:58.797Z,53.65
2022-11-05T15:05:45.642Z,56.15
2022-11-05T15:10:51.985Z,56.40
2022-11-05T15:15:59.101Z,46.38
2022-11-05T15:21:05.614Z,75.18
2022-11-05T15:26:16.167Z,64.90
2022-11-05T15:31:33.418Z,57.13
2022-11-05T15:36:37.463Z,75.18
2022-11-05T15:41:42.289Z,75.55
2022-11-05T15:46:47.975Z,58.72
2022-11-05T15:51:54.645Z,68.13
2022-11-05T15:57:00.813Z,69.85
2022-11-05T16:02:24.362Z,77.30
2022-11-05T16:07:29.707Z,82.88
2022-11-05T16:12:36.781Z,64.47
2022-11-05T16:17:53.635Z,47.65
2022-11-05T16:23:00.085Z,38.13
2022-11-05T16:28:04.414Z,51.17
2022-11-05T16:33:14.905Z,45.65
2022-11-05T16:38:20.116Z,85.22
2022-11-05T16:43:27.170Z,106.93
2022-11-05T16:48:34.862Z,124.07
2022-11-05T16:53:38.969Z,85.32
2022-11-05T16:58:46.225Z,91.35
2022-11-05T17:03:54.342Z,94.85
2022-11-05T17:08:58.818Z,93.78
2022-11-05T17:14:05.127Z,83.32
2022-11-05T17:19:15.295Z,89.40
2022-11-05T17:24:19.500Z,82.75
2022-11-05T17:29:23.706Z,95.55
2022-11-05T17:34:32.088Z,70.15
2022-11-05T17:39:36.321Z,66.40
2022-11-05T17:44:42.285Z,114.25
2022-11-05T17:49:47.645Z,96.65
2022-11-05T17:54:51.802Z,83.28
2022-11-05T17:59:56.822Z,109.30
2022-11-05T18:05:02.471Z,97.63
2022-11-05T18:10:07.274Z,95.18
2022-11-05T18:15:12.058Z,119.63
2022-11-05T18:20:19.764Z,108.15
2022-11-05T18:25:24.336Z,106.32
2022-11-05T18:30:28.407Z,66.32
2022-11-05T18:35:35.597Z,45.70
2022-11-05T18:40:40.050Z,37.75
2022-11-05T18:45:44.322Z,96.82
2022-11-05T18:50:49.732Z,111.22
2022-11-05T18:55:54.473Z,110.15
2022-11-05T19:01:02.500Z,133.98
2022-11-05T19:06:11.929Z,152.88
2022-11-05T19:11:19.213Z,156.85
2022-11-05T19:16:27.092Z,167.68
2022-11-05T19:21:32.867Z,151.25
2022-11-05T19:26:36.890Z,147.05
2022-11-05T19:31:40.880Z,129.95
2022-11-05T19:36:46.426Z,144.65
2022-11-05T19:41:51.515Z,133.00
2022-11-05T19:46:55.560Z,120.80
2022-11-05T19:52:01.580Z,123.32
2022-11-05T19:57:06.495Z,118.15
2022-11-05T20:02:15.958Z,90.90
2022-11-05T20:07:21.969Z,107.70
2022-11-05T20:12:26.794Z,87.15
2022-11-05T20:17:32.379Z,81.10
2022-11-05T20:22:38.633Z,62.40
2022-11-05T20:27:45.300Z,85.72
2022-11-05T20:32:49.257Z,73.68
2022-11-05T20:37:55.469Z,56.92
2022-11-05T20:43:03.365Z,62.75
2022-11-05T20:48:09.828Z,54.20
2022-11-05T20:53:15.404Z,41.45
2022-11-05T20:58:19.608Z,51.85
2022-11-05T21:03:27.247Z,41.17
2022-11-05T21:08:36.579Z,44.83
2022-11-05T21:18:47.181Z,39.92
2022-11-05T21:23:52.525Z,34.85
2022-11-05T21:28:56.460Z,34.70
2022-11-05T21:34:00.575Z,33.80
2022-11-05T21:39:12.068Z,45.28
2022-11-05T21:44:17.983Z,38.28
2022-11-05T21:49:21.890Z,36.08
2022-11-05T21:54:44.776Z,28.15
2022-11-05T21:59:57.730Z,13.93
2022-11-05T22:05:02.648Z,14.77
2022-11-05T22:10:15.849Z,19.90
2022-11-05T22:15:20.868Z,18.90
2022-11-05T22:20:25.271Z,15.02
2022-11-05T22:25:30.780Z,17.08
2022-11-05T22:30:34.772Z,13.35
2022-11-05T22:35:40.517Z,18.10
2022-11-05T22:40:46.799Z,17.92
2022-11-05T22:45:50.972Z,20.67
2022-11-05T22:50:54.939Z,13.45
2022-11-05T22:56:00.301Z,15.82
2022-11-05T23:01:04.989Z,10.85
2022-11-05T23:06:31.915Z,12.10
2022-11-05T23:11:40.074Z,14.60
2022-11-05T23:17:01.597Z,11.45
2022-11-05T23:22:24.578Z,10.18
2022-11-05T23:27:32.083Z,14.82
2022-11-05T23:32:36.806Z,9.48
2022-11-05T23:37:58.086Z,13.98
2022-11-05T23:43:20.570Z,7.38
2022-11-05T23:48:28.719Z,12.70
2022-11-05T23:53:34.995Z,12.70
2022-11-05T23:58:42.017Z,10.23
